Ono-I-Lau, Fiji
Current Conditions -  °F | °C
As of 11:00 AM on Thursday 27 Nov 2014 (Local Time) from NFTF Reporting Station
Few Clouds Few Clouds  
Wind Chill: 82°   Ceiling: Unl
Heat Index: 87°   Visibility: 6mi
Dew Point: 72°   Wind: 13mph
Humidity: 70%   Direction: 130°SE
Pressure: 29.83"   Gusts: NA
Location:  20.67°S, 178.72°W
Report Text: NFTF 262300Z 13011KT 9999 FEW017 28/22 Q1010
Loading
Personal Weather Stations






























Interactive Weather Map New forecast layout! Learn more

10-Day Weather Forecast

Advertisements
Track Severe Weather on mobile